sensor_id;sensor_type;location;lat;lon;timestamp;P1;durP1;ratioP1;P2;durP2;ratioP2
50569;SDS011;36525;49.398;7.614;2022-09-17T00:01:21;4.07;;;0.75;;
50569;SDS011;36525;49.398;7.614;2022-09-17T00:03:51;1.90;;;0.52;;
50569;SDS011;36525;49.398;7.614;2022-09-17T00:06:21;3.67;;;0.60;;
50569;SDS011;36525;49.398;7.614;2022-09-17T00:08:51;2.20;;;0.60;;
50569;SDS011;36525;49.398;7.614;2022-09-17T00:11:26;3.50;;;0.57;;
50569;SDS011;36525;49.398;7.614;2022-09-17T00:13:58;3.90;;;0.50;;
50569;SDS011;36525;49.398;7.614;2022-09-17T00:16:28;3.95;;;0.90;;
50569;SDS011;36525;49.398;7.614;2022-09-17T00:18:58;6.93;;;1.25;;
50569;SDS011;36525;49.398;7.614;2022-09-17T00:21:26;2.33;;;0.47;;
50569;SDS011;36525;49.398;7.614;2022-09-17T00:23:58;2.17;;;0.50;;
50569;SDS011;36525;49.398;7.614;2022-09-17T00:26:30;1.85;;;0.50;;
50569;SDS011;36525;49.398;7.614;2022-09-17T00:28:58;7.18;;;0.60;;
50569;SDS011;36525;49.398;7.614;2022-09-17T00:31:27;5.28;;;1.10;;
50569;SDS011;36525;49.398;7.614;2022-09-17T00:33:56;4.72;;;0.70;;
50569;SDS011;36525;49.398;7.614;2022-09-17T00:36:24;2.25;;;0.50;;
50569;SDS011;36525;49.398;7.614;2022-09-17T00:38:52;2.67;;;0.70;;
50569;SDS011;36525;49.398;7.614;2022-09-17T00:41:24;3.88;;;1.08;;
50569;SDS011;36525;49.398;7.614;2022-09-17T00:43:55;3.45;;;0.60;;
50569;SDS011;36525;49.398;7.614;2022-09-17T00:46:34;5.07;;;0.70;;
50569;SDS011;36525;49.398;7.614;2022-09-17T00:49:11;4.30;;;0.70;;
50569;SDS011;36525;49.398;7.614;2022-09-17T00:51:47;3.92;;;0.68;;
50569;SDS011;36525;49.398;7.614;2022-09-17T00:54:37;5.72;;;0.50;;
50569;SDS011;36525;49.398;7.614;2022-09-17T00:57:09;4.05;;;0.70;;
50569;SDS011;36525;49.398;7.614;2022-09-17T00:59:36;3.58;;;0.70;;
50569;SDS011;36525;49.398;7.614;2022-09-17T01:02:03;5.53;;;0.70;;
50569;SDS011;36525;49.398;7.614;2022-09-17T01:04:30;3.42;;;0.77;;
50569;SDS011;36525;49.398;7.614;2022-09-17T01:10:05;2.00;;;0.80;;
50569;SDS011;36525;49.398;7.614;2022-09-17T01:15:48;4.10;;;0.43;;
50569;SDS011;36525;49.398;7.614;2022-09-17T01:21:29;9.20;;;1.10;;
50569;SDS011;36525;49.398;7.614;2022-09-17T01:38:48;4.65;;;1.00;;
50569;SDS011;36525;49.398;7.614;2022-09-17T01:42:24;5.22;;;0.80;;
50569;SDS011;36525;49.398;7.614;2022-09-17T01:45:14;4.20;;;1.08;;
50569;SDS011;36525;49.398;7.614;2022-09-17T01:50:26;6.55;;;1.23;;
50569;SDS011;36525;49.398;7.614;2022-09-17T01:52:59;8.52;;;1.15;;
50569;SDS011;36525;49.398;7.614;2022-09-17T01:55:30;2.45;;;0.80;;
50569;SDS011;36525;49.398;7.614;2022-09-17T01:58:07;5.65;;;1.00;;
50569;SDS011;36525;49.398;7.614;2022-09-17T02:00:43;2.63;;;0.85;;
50569;SDS011;36525;49.398;7.614;2022-09-17T02:03:21;2.70;;;0.98;;
50569;SDS011;36525;49.398;7.614;2022-09-17T02:06:15;2.67;;;0.90;;
50569;SDS011;36525;49.398;7.614;2022-09-17T02:08:48;6.82;;;0.90;;
50569;SDS011;36525;49.398;7.614;2022-09-17T02:11:20;6.60;;;1.15;;
50569;SDS011;36525;49.398;7.614;2022-09-17T02:14:02;4.05;;;0.80;;
50569;SDS011;36525;49.398;7.614;2022-09-17T02:16:34;6.10;;;1.00;;
50569;SDS011;36525;49.398;7.614;2022-09-17T02:19:08;5.85;;;0.70;;
50569;SDS011;36525;49.398;7.614;2022-09-17T02:27:36;4.90;;;0.93;;
50569;SDS011;36525;49.398;7.614;2022-09-17T02:32:50;4.97;;;0.95;;
50569;SDS011;36525;49.398;7.614;2022-09-17T02:35:20;9.07;;;1.15;;
50569;SDS011;36525;49.398;7.614;2022-09-17T02:37:47;9.05;;;1.10;;
50569;SDS011;36525;49.398;7.614;2022-09-17T02:40:15;3.65;;;0.63;;
50569;SDS011;36525;49.398;7.614;2022-09-17T02:48:24;6.75;;;0.80;;
50569;SDS011;36525;49.398;7.614;2022-09-17T02:51:03;5.65;;;0.85;;
50569;SDS011;36525;49.398;7.614;2022-09-17T03:02:55;6.13;;;1.10;;
50569;SDS011;36525;49.398;7.614;2022-09-17T03:05:27;7.00;;;0.90;;
50569;SDS011;36525;49.398;7.614;2022-09-17T03:07:55;4.65;;;1.00;;
50569;SDS011;36525;49.398;7.614;2022-09-17T03:10:24;5.93;;;0.88;;
50569;SDS011;36525;49.398;7.614;2022-09-17T03:12:58;6.85;;;1.00;;
50569;SDS011;36525;49.398;7.614;2022-09-17T03:15:25;6.07;;;0.90;;
50569;SDS011;36525;49.398;7.614;2022-09-17T03:17:53;3.72;;;0.93;;
50569;SDS011;36525;49.398;7.614;2022-09-17T03:20:20;9.25;;;1.20;;
50569;SDS011;36525;49.398;7.614;2022-09-17T03:22:47;5.55;;;1.08;;
50569;SDS011;36525;49.398;7.614;2022-09-17T03:25:14;2.85;;;0.60;;
50569;SDS011;36525;49.398;7.614;2022-09-17T03:27:41;8.23;;;1.17;;
50569;SDS011;36525;49.398;7.614;2022-09-17T03:30:08;3.80;;;0.63;;
50569;SDS011;36525;49.398;7.614;2022-09-17T03:32:35;5.97;;;0.80;;
50569;SDS011;36525;49.398;7.614;2022-09-17T03:35:02;7.57;;;0.80;;
50569;SDS011;36525;49.398;7.614;2022-09-17T03:37:29;10.43;;;1.38;;
50569;SDS011;36525;49.398;7.614;2022-09-17T03:39:58;4.65;;;0.70;;
50569;SDS011;36525;49.398;7.614;2022-09-17T03:42:25;4.97;;;0.75;;
50569;SDS011;36525;49.398;7.614;2022-09-17T03:44:52;3.95;;;1.08;;
50569;SDS011;36525;49.398;7.614;2022-09-17T03:47:19;4.38;;;1.05;;
50569;SDS011;36525;49.398;7.614;2022-09-17T03:49:46;3.90;;;0.68;;
50569;SDS011;36525;49.398;7.614;2022-09-17T03:52:13;6.45;;;0.90;;
50569;SDS011;36525;49.398;7.614;2022-09-17T03:54:40;5.75;;;1.13;;
50569;SDS011;36525;49.398;7.614;2022-09-17T03:57:07;6.70;;;1.02;;
50569;SDS011;36525;49.398;7.614;2022-09-17T03:59:34;7.57;;;1.20;;
50569;SDS011;36525;49.398;7.614;2022-09-17T04:02:01;6.20;;;0.90;;
50569;SDS011;36525;49.398;7.614;2022-09-17T04:04:28;7.68;;;1.10;;
50569;SDS011;36525;49.398;7.614;2022-09-17T04:06:57;8.43;;;1.30;;
50569;SDS011;36525;49.398;7.614;2022-09-17T04:09:24;11.43;;;1.20;;
50569;SDS011;36525;49.398;7.614;2022-09-17T04:11:52;9.13;;;1.23;;
50569;SDS011;36525;49.398;7.614;2022-09-17T04:14:18;6.63;;;2.25;;
50569;SDS011;36525;49.398;7.614;2022-09-17T04:16:45;3.42;;;1.10;;
50569;SDS011;36525;49.398;7.614;2022-09-17T04:19:12;9.32;;;1.27;;
50569;SDS011;36525;49.398;7.614;2022-09-17T04:21:39;7.82;;;1.48;;
50569;SDS011;36525;49.398;7.614;2022-09-17T04:24:06;6.43;;;1.55;;
50569;SDS011;36525;49.398;7.614;2022-09-17T04:26:36;5.50;;;1.35;;
50569;SDS011;36525;49.398;7.614;2022-09-17T04:29:04;8.73;;;1.50;;
50569;SDS011;36525;49.398;7.614;2022-09-17T04:31:31;6.57;;;1.70;;
50569;SDS011;36525;49.398;7.614;2022-09-17T04:33:58;8.00;;;1.83;;
50569;SDS011;36525;49.398;7.614;2022-09-17T04:36:25;11.57;;;1.90;;
50569;SDS011;36525;49.398;7.614;2022-09-17T04:38:52;6.60;;;2.05;;
50569;SDS011;36525;49.398;7.614;2022-09-17T04:41:19;13.48;;;2.33;;
50569;SDS011;36525;49.398;7.614;2022-09-17T04:43:46;6.50;;;2.42;;
50569;SDS011;36525;49.398;7.614;2022-09-17T04:46:13;14.88;;;2.90;;
50569;SDS011;36525;49.398;7.614;2022-09-17T04:48:42;6.30;;;2.50;;
50569;SDS011;36525;49.398;7.614;2022-09-17T04:51:09;10.90;;;2.53;;
50569;SDS011;36525;49.398;7.614;2022-09-17T04:53:36;8.38;;;3.17;;
50569;SDS011;36525;49.398;7.614;2022-09-17T04:56:03;5.15;;;2.35;;
50569;SDS011;36525;49.398;7.614;2022-09-17T04:58:30;9.13;;;2.60;;
50569;SDS011;36525;49.398;7.614;2022-09-17T05:00:58;7.50;;;2.88;;
50569;SDS011;36525;49.398;7.614;2022-09-17T05:03:25;7.63;;;2.10;;
50569;SDS011;36525;49.398;7.614;2022-09-17T05:05:52;9.45;;;2.28;;
50569;SDS011;36525;49.398;7.614;2022-09-17T05:08:19;12.88;;;2.88;;
50569;SDS011;36525;49.398;7.614;2022-09-17T05:10:49;9.07;;;2.13;;
50569;SDS011;36525;49.398;7.614;2022-09-17T05:13:16;5.93;;;2.33;;
50569;SDS011;36525;49.398;7.614;2022-09-17T05:15:44;6.68;;;2.55;;
50569;SDS011;36525;49.398;7.614;2022-09-17T05:18:11;8.32;;;2.33;;
50569;SDS011;36525;49.398;7.614;2022-09-17T05:20:38;6.63;;;2.40;;
50569;SDS011;36525;49.398;7.614;2022-09-17T05:23:05;7.38;;;1.80;;
50569;SDS011;36525;49.398;7.614;2022-09-17T05:25:32;8.32;;;1.90;;
50569;SDS011;36525;49.398;7.614;2022-09-17T05:28:05;9.95;;;2.35;;
50569;SDS011;36525;49.398;7.614;2022-09-17T05:30:33;6.72;;;2.05;;
50569;SDS011;36525;49.398;7.614;2022-09-17T05:33:04;8.70;;;2.05;;
50569;SDS011;36525;49.398;7.614;2022-09-17T05:35:32;12.05;;;2.15;;
50569;SDS011;36525;49.398;7.614;2022-09-17T05:38:02;7.82;;;2.33;;
50569;SDS011;36525;49.398;7.614;2022-09-17T05:40:31;7.85;;;2.22;;
50569;SDS011;36525;49.398;7.614;2022-09-17T05:43:02;6.93;;;2.08;;
50569;SDS011;36525;49.398;7.614;2022-09-17T05:48:00;9.90;;;2.22;;
50569;SDS011;36525;49.398;7.614;2022-09-17T05:50:28;3.97;;;1.40;;
50569;SDS011;36525;49.398;7.614;2022-09-17T05:52:56;5.82;;;1.42;;
50569;SDS011;36525;49.398;7.614;2022-09-17T05:55:28;6.47;;;1.65;;
50569;SDS011;36525;49.398;7.614;2022-09-17T05:57:56;5.30;;;1.95;;
50569;SDS011;36525;49.398;7.614;2022-09-17T06:00:23;10.63;;;2.20;;
50569;SDS011;36525;49.398;7.614;2022-09-17T06:02:56;9.45;;;1.60;;
50569;SDS011;36525;49.398;7.614;2022-09-17T06:05:23;8.52;;;1.73;;
50569;SDS011;36525;49.398;7.614;2022-09-17T06:07:50;4.93;;;1.58;;
50569;SDS011;36525;49.398;7.614;2022-09-17T06:10:17;7.68;;;1.65;;
50569;SDS011;36525;49.398;7.614;2022-09-17T06:12:44;6.30;;;1.73;;
50569;SDS011;36525;49.398;7.614;2022-09-17T06:15:11;6.13;;;1.90;;
50569;SDS011;36525;49.398;7.614;2022-09-17T06:17:39;7.63;;;2.30;;
50569;SDS011;36525;49.398;7.614;2022-09-17T06:20:07;7.55;;;1.85;;
50569;SDS011;36525;49.398;7.614;2022-09-17T06:22:35;7.22;;;1.95;;
50569;SDS011;36525;49.398;7.614;2022-09-17T06:25:02;12.48;;;1.90;;
50569;SDS011;36525;49.398;7.614;2022-09-17T06:27:30;6.07;;;1.92;;
50569;SDS011;36525;49.398;7.614;2022-09-17T06:29:58;6.93;;;1.52;;
50569;SDS011;36525;49.398;7.614;2022-09-17T06:32:26;6.70;;;1.40;;
50569;SDS011;36525;49.398;7.614;2022-09-17T06:34:54;6.32;;;1.40;;
50569;SDS011;36525;49.398;7.614;2022-09-17T06:37:26;5.80;;;1.77;;
50569;SDS011;36525;49.398;7.614;2022-09-17T06:39:55;5.47;;;1.80;;
50569;SDS011;36525;49.398;7.614;2022-09-17T06:42:22;8.23;;;2.55;;
50569;SDS011;36525;49.398;7.614;2022-09-17T06:44:49;5.63;;;1.45;;
50569;SDS011;36525;49.398;7.614;2022-09-17T06:47:16;9.25;;;1.85;;
50569;SDS011;36525;49.398;7.614;2022-09-17T06:49:43;7.20;;;1.63;;
50569;SDS011;36525;49.398;7.614;2022-09-17T06:52:10;10.38;;;2.03;;
50569;SDS011;36525;49.398;7.614;2022-09-17T06:54:37;7.28;;;1.50;;
50569;SDS011;36525;49.398;7.614;2022-09-17T06:57:04;7.28;;;1.38;;
50569;SDS011;36525;49.398;7.614;2022-09-17T06:59:31;11.73;;;2.35;;
50569;SDS011;36525;49.398;7.614;2022-09-17T07:01:58;12.52;;;1.77;;
50569;SDS011;36525;49.398;7.614;2022-09-17T07:04:25;8.57;;;1.98;;
50569;SDS011;36525;49.398;7.614;2022-09-17T07:06:52;5.97;;;1.70;;
50569;SDS011;36525;49.398;7.614;2022-09-17T07:09:19;8.68;;;1.80;;
50569;SDS011;36525;49.398;7.614;2022-09-17T07:11:46;4.75;;;1.27;;
50569;SDS011;36525;49.398;7.614;2022-09-17T07:14:12;9.80;;;1.95;;
50569;SDS011;36525;49.398;7.614;2022-09-17T07:16:40;8.48;;;1.70;;
50569;SDS011;36525;49.398;7.614;2022-09-17T07:19:07;6.05;;;1.88;;
50569;SDS011;36525;49.398;7.614;2022-09-17T07:21:34;12.55;;;1.83;;
50569;SDS011;36525;49.398;7.614;2022-09-17T07:24:01;5.93;;;1.70;;
50569;SDS011;36525;49.398;7.614;2022-09-17T07:26:28;6.82;;;1.75;;
50569;SDS011;36525;49.398;7.614;2022-09-17T07:28:56;5.78;;;1.60;;
50569;SDS011;36525;49.398;7.614;2022-09-17T07:31:23;7.60;;;1.83;;
50569;SDS011;36525;49.398;7.614;2022-09-17T07:33:50;10.80;;;2.10;;
50569;SDS011;36525;49.398;7.614;2022-09-17T07:36:17;6.38;;;1.70;;
50569;SDS011;36525;49.398;7.614;2022-09-17T07:38:44;6.20;;;1.65;;
50569;SDS011;36525;49.398;7.614;2022-09-17T07:41:12;8.27;;;1.50;;
50569;SDS011;36525;49.398;7.614;2022-09-17T07:43:42;11.18;;;2.15;;
50569;SDS011;36525;49.398;7.614;2022-09-17T07:46:16;13.70;;;2.55;;
50569;SDS011;36525;49.398;7.614;2022-09-17T07:48:45;4.45;;;1.15;;
50569;SDS011;36525;49.398;7.614;2022-09-17T07:51:17;6.55;;;1.65;;
50569;SDS011;36525;49.398;7.614;2022-09-17T07:53:56;6.63;;;2.00;;
50569;SDS011;36525;49.398;7.614;2022-09-17T07:56:25;8.50;;;2.15;;
50569;SDS011;36525;49.398;7.614;2022-09-17T07:58:53;10.30;;;1.63;;
50569;SDS011;36525;49.398;7.614;2022-09-17T08:01:20;6.97;;;1.80;;
50569;SDS011;36525;49.398;7.614;2022-09-17T08:03:51;9.77;;;2.60;;
50569;SDS011;36525;49.398;7.614;2022-09-17T08:06:21;9.32;;;2.58;;
50569;SDS011;36525;49.398;7.614;2022-09-17T08:08:51;7.82;;;1.88;;
50569;SDS011;36525;49.398;7.614;2022-09-17T08:11:18;9.65;;;4.90;;
50569;SDS011;36525;49.398;7.614;2022-09-17T08:14:09;8.32;;;1.65;;
50569;SDS011;36525;49.398;7.614;2022-09-17T08:16:40;13.00;;;5.57;;
50569;SDS011;36525;49.398;7.614;2022-09-17T08:19:07;5.88;;;1.42;;
50569;SDS011;36525;49.398;7.614;2022-09-17T08:21:36;14.70;;;5.82;;
50569;SDS011;36525;49.398;7.614;2022-09-17T08:24:03;9.15;;;2.72;;
50569;SDS011;36525;49.398;7.614;2022-09-17T08:26:31;25.00;;;10.80;;
50569;SDS011;36525;49.398;7.614;2022-09-17T08:28:58;18.80;;;5.88;;
50569;SDS011;36525;49.398;7.614;2022-09-17T08:31:25;9.05;;;1.17;;
50569;SDS011;36525;49.398;7.614;2022-09-17T08:33:55;7.15;;;1.17;;
50569;SDS011;36525;49.398;7.614;2022-09-17T08:36:22;5.18;;;0.80;;
50569;SDS011;36525;49.398;7.614;2022-09-17T08:38:51;5.47;;;0.90;;
50569;SDS011;36525;49.398;7.614;2022-09-17T08:46:57;4.70;;;0.70;;
50569;SDS011;36525;49.398;7.614;2022-09-17T08:49:34;6.22;;;0.90;;
50569;SDS011;36525;49.398;7.614;2022-09-17T08:58:25;5.90;;;0.63;;
50569;SDS011;36525;49.398;7.614;2022-09-17T09:04:16;6.22;;;0.90;;
50569;SDS011;36525;49.398;7.614;2022-09-17T09:07:17;4.10;;;0.77;;
50569;SDS011;36525;49.398;7.614;2022-09-17T09:09:53;3.42;;;0.65;;
50569;SDS011;36525;49.398;7.614;2022-09-17T09:12:34;5.63;;;0.73;;
50569;SDS011;36525;49.398;7.614;2022-09-17T09:15:07;5.65;;;0.88;;
50569;SDS011;36525;49.398;7.614;2022-09-17T09:17:57;6.68;;;0.70;;
50569;SDS011;36525;49.398;7.614;2022-09-17T09:20:35;2.63;;;0.70;;
50569;SDS011;36525;49.398;7.614;2022-09-17T09:23:16;6.82;;;0.80;;
50569;SDS011;36525;49.398;7.614;2022-09-17T09:26:20;4.45;;;0.90;;
50569;SDS011;36525;49.398;7.614;2022-09-17T09:34:18;5.63;;;0.93;;
50569;SDS011;36525;49.398;7.614;2022-09-17T09:36:45;7.18;;;0.85;;
50569;SDS011;36525;49.398;7.614;2022-09-17T09:39:16;7.45;;;1.23;;
50569;SDS011;36525;49.398;7.614;2022-09-17T09:41:59;6.78;;;1.30;;
50569;SDS011;36525;49.398;7.614;2022-09-17T09:44:36;7.55;;;1.00;;
50569;SDS011;36525;49.398;7.614;2022-09-17T09:50:26;5.00;;;0.85;;
50569;SDS011;36525;49.398;7.614;2022-09-17T09:59:32;5.53;;;1.00;;
50569;SDS011;36525;49.398;7.614;2022-09-17T10:02:03;3.90;;;0.73;;
50569;SDS011;36525;49.398;7.614;2022-09-17T10:04:30;6.72;;;1.02;;
50569;SDS011;36525;49.398;7.614;2022-09-17T10:07:07;7.90;;;1.92;;
50569;SDS011;36525;49.398;7.614;2022-09-17T10:09:37;5.57;;;0.80;;
50569;SDS011;36525;49.398;7.614;2022-09-17T10:14:37;7.25;;;1.27;;
50569;SDS011;36525;49.398;7.614;2022-09-17T10:20:06;5.25;;;0.90;;
50569;SDS011;36525;49.398;7.614;2022-09-17T10:22:45;4.55;;;0.85;;
50569;SDS011;36525;49.398;7.614;2022-09-17T10:25:29;7.03;;;0.98;;
50569;SDS011;36525;49.398;7.614;2022-09-17T10:28:00;7.10;;;1.20;;
50569;SDS011;36525;49.398;7.614;2022-09-17T10:30:30;7.35;;;0.77;;
50569;SDS011;36525;49.398;7.614;2022-09-17T10:33:09;8.07;;;0.77;;
50569;SDS011;36525;49.398;7.614;2022-09-17T10:35:59;8.52;;;1.10;;
50569;SDS011;36525;49.398;7.614;2022-09-17T10:38:33;10.20;;;1.23;;
50569;SDS011;36525;49.398;7.614;2022-09-17T10:43:42;6.40;;;1.10;;
50569;SDS011;36525;49.398;7.614;2022-09-17T10:46:19;6.20;;;0.80;;
50569;SDS011;36525;49.398;7.614;2022-09-17T10:49:09;5.20;;;0.80;;
50569;SDS011;36525;49.398;7.614;2022-09-17T10:52:39;4.80;;;0.73;;
50569;SDS011;36525;49.398;7.614;2022-09-17T11:09:25;5.72;;;0.75;;
50569;SDS011;36525;49.398;7.614;2022-09-17T11:15:09;4.00;;;0.70;;
50569;SDS011;36525;49.398;7.614;2022-09-17T11:17:49;4.47;;;0.75;;
50569;SDS011;36525;49.398;7.614;2022-09-17T11:20:30;5.55;;;0.70;;
50569;SDS011;36525;49.398;7.614;2022-09-17T11:26:40;5.00;;;0.80;;
50569;SDS011;36525;49.398;7.614;2022-09-17T11:35:26;6.47;;;0.80;;
50569;SDS011;36525;49.398;7.614;2022-09-17T11:38:03;10.65;;;1.08;;
50569;SDS011;36525;49.398;7.614;2022-09-17T11:40:49;4.90;;;0.90;;
50569;SDS011;36525;49.398;7.614;2022-09-17T11:43:41;5.72;;;0.65;;
50569;SDS011;36525;49.398;7.614;2022-09-17T11:46:44;5.18;;;0.73;;
50569;SDS011;36525;49.398;7.614;2022-09-17T11:52:10;4.40;;;0.82;;
50569;SDS011;36525;49.398;7.614;2022-09-17T11:57:34;3.25;;;0.60;;
50569;SDS011;36525;49.398;7.614;2022-09-17T12:00:15;4.17;;;0.60;;
50569;SDS011;36525;49.398;7.614;2022-09-17T12:05:24;4.57;;;0.80;;
50569;SDS011;36525;49.398;7.614;2022-09-17T12:16:57;2.72;;;0.60;;
50569;SDS011;36525;49.398;7.614;2022-09-17T12:22:00;1.80;;;0.40;;
50569;SDS011;36525;49.398;7.614;2022-09-17T12:24:48;2.45;;;0.73;;
50569;SDS011;36525;49.398;7.614;2022-09-17T12:30:18;2.90;;;0.77;;
50569;SDS011;36525;49.398;7.614;2022-09-17T13:01:21;3.45;;;0.52;;
50569;SDS011;36525;49.398;7.614;2022-09-17T13:13:44;3.30;;;0.57;;
50569;SDS011;36525;49.398;7.614;2022-09-17T13:16:36;1.35;;;0.40;;
50569;SDS011;36525;49.398;7.614;2022-09-17T13:19:17;1.60;;;0.40;;
50569;SDS011;36525;49.398;7.614;2022-09-17T13:22:06;2.42;;;0.50;;
50569;SDS011;36525;49.398;7.614;2022-09-17T13:24:46;3.03;;;0.55;;
50569;SDS011;36525;49.398;7.614;2022-09-17T13:27:27;2.78;;;0.50;;
50569;SDS011;36525;49.398;7.614;2022-09-17T13:37:35;1.25;;;0.32;;
50569;SDS011;36525;49.398;7.614;2022-09-17T13:45:31;3.93;;;0.40;;
50569;SDS011;36525;49.398;7.614;2022-09-17T13:48:03;1.67;;;0.40;;
50569;SDS011;36525;49.398;7.614;2022-09-17T13:50:41;1.92;;;0.50;;
50569;SDS011;36525;49.398;7.614;2022-09-17T13:55:55;2.47;;;0.73;;
50569;SDS011;36525;49.398;7.614;2022-09-17T13:58:29;2.35;;;0.40;;
50569;SDS011;36525;49.398;7.614;2022-09-17T14:01:00;2.88;;;0.60;;
50569;SDS011;36525;49.398;7.614;2022-09-17T14:08:54;3.42;;;0.57;;
50569;SDS011;36525;49.398;7.614;2022-09-17T14:30:29;3.17;;;0.88;;
50569;SDS011;36525;49.398;7.614;2022-09-17T14:35:40;3.17;;;0.60;;
50569;SDS011;36525;49.398;7.614;2022-09-17T14:41:00;3.83;;;0.60;;
50569;SDS011;36525;49.398;7.614;2022-09-17T14:49:25;2.70;;;0.40;;
50569;SDS011;36525;49.398;7.614;2022-09-17T14:51:55;4.60;;;0.70;;
50569;SDS011;36525;49.398;7.614;2022-09-17T14:54:24;1.95;;;0.50;;
50569;SDS011;36525;49.398;7.614;2022-09-17T14:59:39;6.10;;;0.60;;
50569;SDS011;36525;49.398;7.614;2022-09-17T15:02:28;2.13;;;0.50;;
50569;SDS011;36525;49.398;7.614;2022-09-17T15:05:18;1.52;;;0.40;;
50569;SDS011;36525;49.398;7.614;2022-09-17T15:08:30;4.72;;;0.73;;
50569;SDS011;36525;49.398;7.614;2022-09-17T15:10:55;0.70;;;0.40;;
50569;SDS011;36525;49.398;7.614;2022-09-17T15:13:50;2.60;;;0.50;;
50569;SDS011;36525;49.398;7.614;2022-09-17T15:16:25;1.58;;;0.55;;
50569;SDS011;36525;49.398;7.614;2022-09-17T15:18:59;3.10;;;0.50;;
50569;SDS011;36525;49.398;7.614;2022-09-17T15:27:10;1.17;;;0.40;;
50569;SDS011;36525;49.398;7.614;2022-09-17T15:29:40;3.22;;;0.68;;
50569;SDS011;36525;49.398;7.614;2022-09-17T15:32:12;2.45;;;0.50;;
50569;SDS011;36525;49.398;7.614;2022-09-17T15:34:40;1.73;;;0.60;;
50569;SDS011;36525;49.398;7.614;2022-09-17T15:37:20;3.05;;;0.70;;
50569;SDS011;36525;49.398;7.614;2022-09-17T15:39:53;4.60;;;0.75;;
50569;SDS011;36525;49.398;7.614;2022-09-17T15:42:25;2.40;;;0.60;;
50569;SDS011;36525;49.398;7.614;2022-09-17T15:47:53;3.42;;;0.70;;
50569;SDS011;36525;49.398;7.614;2022-09-17T15:50:23;1.92;;;0.50;;
50569;SDS011;36525;49.398;7.614;2022-09-17T15:52:57;5.83;;;0.60;;
50569;SDS011;36525;49.398;7.614;2022-09-17T15:55:37;2.83;;;0.60;;
50569;SDS011;36525;49.398;7.614;2022-09-17T15:58:29;3.10;;;0.70;;
50569;SDS011;36525;49.398;7.614;2022-09-17T16:04:26;4.85;;;0.90;;
50569;SDS011;36525;49.398;7.614;2022-09-17T16:12:14;3.70;;;0.80;;
50569;SDS011;36525;49.398;7.614;2022-09-17T16:14:48;2.72;;;0.70;;
50569;SDS011;36525;49.398;7.614;2022-09-17T16:17:21;1.92;;;0.68;;
50569;SDS011;36525;49.398;7.614;2022-09-17T16:19:58;4.72;;;0.65;;
50569;SDS011;36525;49.398;7.614;2022-09-17T16:22:31;2.55;;;0.50;;
50569;SDS011;36525;49.398;7.614;2022-09-17T16:24:58;3.22;;;0.75;;
50569;SDS011;36525;49.398;7.614;2022-09-17T16:27:26;3.08;;;0.70;;
50569;SDS011;36525;49.398;7.614;2022-09-17T16:30:03;3.53;;;0.60;;
50569;SDS011;36525;49.398;7.614;2022-09-17T16:32:34;2.30;;;0.40;;
50569;SDS011;36525;49.398;7.614;2022-09-17T16:35:01;1.90;;;0.52;;
50569;SDS011;36525;49.398;7.614;2022-09-17T16:37:28;1.77;;;0.40;;
50569;SDS011;36525;49.398;7.614;2022-09-17T16:39:55;5.05;;;0.95;;
50569;SDS011;36525;49.398;7.614;2022-09-17T16:42:22;5.47;;;0.70;;
50569;SDS011;36525;49.398;7.614;2022-09-17T16:44:49;4.75;;;1.02;;
50569;SDS011;36525;49.398;7.614;2022-09-17T16:47:16;2.67;;;0.70;;
50569;SDS011;36525;49.398;7.614;2022-09-17T16:49:43;1.73;;;0.50;;
50569;SDS011;36525;49.398;7.614;2022-09-17T16:52:10;3.60;;;0.60;;
50569;SDS011;36525;49.398;7.614;2022-09-17T16:54:37;3.72;;;0.52;;
50569;SDS011;36525;49.398;7.614;2022-09-17T16:57:03;2.53;;;0.60;;
50569;SDS011;36525;49.398;7.614;2022-09-17T16:59:30;3.72;;;0.90;;
50569;SDS011;36525;49.398;7.614;2022-09-17T17:01:57;3.35;;;0.70;;
50569;SDS011;36525;49.398;7.614;2022-09-17T17:04:25;3.53;;;0.68;;
50569;SDS011;36525;49.398;7.614;2022-09-17T17:06:52;1.73;;;0.40;;
50569;SDS011;36525;49.398;7.614;2022-09-17T17:09:18;2.03;;;0.40;;
50569;SDS011;36525;49.398;7.614;2022-09-17T17:11:45;1.20;;;0.30;;
50569;SDS011;36525;49.398;7.614;2022-09-17T17:14:12;2.28;;;0.40;;
50569;SDS011;36525;49.398;7.614;2022-09-17T17:16:40;2.08;;;0.30;;
50569;SDS011;36525;49.398;7.614;2022-09-17T17:19:08;1.65;;;0.30;;
50569;SDS011;36525;49.398;7.614;2022-09-17T17:21:36;1.65;;;0.30;;
50569;SDS011;36525;49.398;7.614;2022-09-17T17:24:03;2.13;;;0.40;;
50569;SDS011;36525;49.398;7.614;2022-09-17T17:26:32;3.00;;;0.30;;
50569;SDS011;36525;49.398;7.614;2022-09-17T17:28:59;2.97;;;0.40;;
50569;SDS011;36525;49.398;7.614;2022-09-17T17:31:28;1.08;;;0.40;;
50569;SDS011;36525;49.398;7.614;2022-09-17T17:33:55;1.75;;;0.40;;
50569;SDS011;36525;49.398;7.614;2022-09-17T17:36:23;1.85;;;0.40;;
50569;SDS011;36525;49.398;7.614;2022-09-17T17:38:54;1.80;;;0.60;;
50569;SDS011;36525;49.398;7.614;2022-09-17T17:41:25;2.00;;;0.40;;
50569;SDS011;36525;49.398;7.614;2022-09-17T17:43:53;1.80;;;0.47;;
50569;SDS011;36525;49.398;7.614;2022-09-17T17:46:23;2.60;;;0.45;;
50569;SDS011;36525;49.398;7.614;2022-09-17T17:48:50;2.65;;;0.50;;
50569;SDS011;36525;49.398;7.614;2022-09-17T17:51:17;2.00;;;0.50;;
50569;SDS011;36525;49.398;7.614;2022-09-17T17:53:44;1.83;;;0.50;;
50569;SDS011;36525;49.398;7.614;2022-09-17T17:56:12;5.68;;;0.40;;
50569;SDS011;36525;49.398;7.614;2022-09-17T17:58:39;2.28;;;0.50;;
50569;SDS011;36525;49.398;7.614;2022-09-17T18:01:16;2.17;;;0.45;;
50569;SDS011;36525;49.398;7.614;2022-09-17T18:03:46;2.28;;;0.50;;
50569;SDS011;36525;49.398;7.614;2022-09-17T18:06:13;4.05;;;0.70;;
50569;SDS011;36525;49.398;7.614;2022-09-17T18:08:41;4.85;;;0.55;;
50569;SDS011;36525;49.398;7.614;2022-09-17T18:11:09;4.85;;;0.60;;
50569;SDS011;36525;49.398;7.614;2022-09-17T18:13:37;4.82;;;0.68;;
50569;SDS011;36525;49.398;7.614;2022-09-17T18:16:05;3.33;;;0.50;;
50569;SDS011;36525;49.398;7.614;2022-09-17T18:18:35;3.65;;;0.60;;
50569;SDS011;36525;49.398;7.614;2022-09-17T18:21:11;3.42;;;0.60;;
50569;SDS011;36525;49.398;7.614;2022-09-17T18:23:47;5.57;;;0.60;;
50569;SDS011;36525;49.398;7.614;2022-09-17T18:26:16;3.70;;;0.50;;
50569;SDS011;36525;49.398;7.614;2022-09-17T18:28:49;4.03;;;0.57;;
50569;SDS011;36525;49.398;7.614;2022-09-17T18:31:27;4.18;;;0.63;;
50569;SDS011;36525;49.398;7.614;2022-09-17T18:34:00;5.30;;;0.60;;
50569;SDS011;36525;49.398;7.614;2022-09-17T18:36:30;3.50;;;0.57;;
50569;SDS011;36525;49.398;7.614;2022-09-17T18:39:00;2.50;;;0.65;;
50569;SDS011;36525;49.398;7.614;2022-09-17T18:41:50;2.17;;;0.60;;
50569;SDS011;36525;49.398;7.614;2022-09-17T18:44:18;1.63;;;0.40;;
50569;SDS011;36525;49.398;7.614;2022-09-17T18:46:47;6.00;;;0.63;;
50569;SDS011;36525;49.398;7.614;2022-09-17T18:49:15;3.22;;;0.57;;
50569;SDS011;36525;49.398;7.614;2022-09-17T18:51:42;4.32;;;0.70;;
50569;SDS011;36525;49.398;7.614;2022-09-17T18:54:09;5.45;;;0.55;;
50569;SDS011;36525;49.398;7.614;2022-09-17T18:56:38;5.15;;;0.60;;
50569;SDS011;36525;49.398;7.614;2022-09-17T18:59:07;5.13;;;0.60;;
50569;SDS011;36525;49.398;7.614;2022-09-17T19:01:35;4.80;;;0.68;;
50569;SDS011;36525;49.398;7.614;2022-09-17T19:04:02;3.22;;;0.57;;
50569;SDS011;36525;49.398;7.614;2022-09-17T19:06:30;3.40;;;0.60;;
50569;SDS011;36525;49.398;7.614;2022-09-17T19:09:00;4.82;;;0.90;;
50569;SDS011;36525;49.398;7.614;2022-09-17T19:11:29;4.82;;;0.57;;
50569;SDS011;36525;49.398;7.614;2022-09-17T19:13:56;3.50;;;0.68;;
50569;SDS011;36525;49.398;7.614;2022-09-17T19:16:23;3.65;;;0.50;;
50569;SDS011;36525;49.398;7.614;2022-09-17T19:18:50;4.80;;;0.60;;
50569;SDS011;36525;49.398;7.614;2022-09-17T19:21:18;5.68;;;0.68;;
50569;SDS011;36525;49.398;7.614;2022-09-17T19:23:47;2.90;;;0.50;;
50569;SDS011;36525;49.398;7.614;2022-09-17T19:26:17;4.88;;;0.70;;